Owasso, OK

4:25 AM CDT on September 01, 2015 (GMT -0500)
Mid-Town | | Change Station
CLOSE
Current Station
Personal Weather Station
Location: Owasso, OK
Elevation: 630 ft
Nearby Weather Stations

Elev 630 ft 36.27 °N, 95.84 °W | Updated 8 seconds ago

Clear
Clear
73.2 °F
Feels Like 72 °F
N
1.1
Wind Variable Wind from SE
Gusts 1.1 mph

Today
High -- | Low -- °F
--% Chance of Precip.
Yesterday
High -- | Low -- °F
Precip. -- in
6:54 AM 7:51 PM
Waning Gibbous, 90% visible
Pressure 29.98 in
Visibility 10.0 miles
Clouds Clear
Heat Index 72 °F
Dew Point 69 °F
Humidity 87%
Rainfall 0.00 in
Snow Depth Not available.
UV 0 out of 12
Pollen 9.80 out of 12
Air Quality Not available.
Flu Activity Not available.
METAR KTUL 010853Z 17007KT 10SM CLR 24/21 A3000 RMK AO2 SLP151 T02440206 53002
Pressure 29.98 in
Visibility 10.0 miles
Clouds Clear
Heat Index 72 °F
Dew Point 69 °F
Humidity 87%
Rainfall 0.00 in
Snow Depth Not available.
UV 0 out of 12
Pollen 9.80 out of 12
Air Quality Not available.
Flu Activity Not available.
METAR KTUL 010853Z 17007KT 10SM CLR 24/21 A3000 RMK AO2 SLP151 T02440206 53002

10-Day Weather Forecast

×

Almanac

Astronomy

Sep. 01, 2015 Rise Set
Actual Time
Civil Twilight
Nautical Twilight
Astronomical Twilight
Moon
Length of Visible Light
Length of Day
Tomorrow will be .
, % of the Moon is Illuminated

Today's Extremes

State Highs State Lows

Community

WunderPhotos

Upload Photos

1,851,490 photos uploaded!

WunderBlogs® & News

Nearby

Air Quality

  Air Quality AQ Index Pollutant
Not available.

Snow Depth

Station Depth Elevation

Earthquake Activity

City Distance Mag. Time & Date
Minimum magnitude displayed is 2.5.

Coastal Water Temperatures

Place Temperature

Stations

Nearby Weather Stations

Station Location Temp. Windchill Dew Point Humidity Wind Precip. Elev Updated Type